sim
Sign-in with your pilot id or email,
or register
Callsign
Passwort

Schedule Details

Flight Number: OEO6212
Departure: Zurich Airport (LSZH) at 11:15
Arrival: Fuerteventura Airport (GCFV) at 15:55

Weather Information
Getting current METAR information for LSZH 231050Z 07005KT 360V160 CAVOK 29/18 Q1021 NOSIG
Getting current METAR information for GCFV 231100Z 06015KT 9999 FEW020 24/19 Q1017

Schedule Frequency

Route Map